createdAt,value
2023-05-21T00:00:09.210Z,1011.79
2023-05-21T00:00:41.685Z,1011.78
2023-05-21T00:01:14.152Z,1011.78
2023-05-21T00:01:46.568Z,1011.77
2023-05-21T00:02:19.095Z,1011.77
2023-05-21T00:02:51.713Z,1011.77
2023-05-21T00:03:24.056Z,1011.76
2023-05-21T00:03:56.564Z,1011.75
2023-05-21T00:04:28.899Z,1011.72
2023-05-21T00:05:01.355Z,1011.72
2023-05-21T00:05:33.992Z,1011.72
2023-05-21T00:06:06.324Z,1011.70
2023-05-21T00:06:38.881Z,1011.71
2023-05-21T00:07:11.250Z,1011.71
2023-05-21T00:07:43.738Z,1011.70
2023-05-21T00:08:16.157Z,1011.68
2023-05-21T00:08:48.578Z,1011.70
2023-05-21T00:09:21.012Z,1011.70
2023-05-21T00:09:53.474Z,1011.72
2023-05-21T00:10:25.967Z,1011.72
2023-05-21T00:10:58.432Z,1011.73
2023-05-21T00:11:30.866Z,1011.72
2023-05-21T00:12:03.355Z,1011.72
2023-05-21T00:12:35.861Z,1011.71
2023-05-21T00:13:08.283Z,1011.71
2023-05-21T00:13:40.770Z,1011.70
2023-05-21T00:14:13.210Z,1011.69
2023-05-21T00:14:45.633Z,1011.70
2023-05-21T00:15:18.156Z,1011.68
2023-05-21T00:15:50.596Z,1011.70
2023-05-21T00:16:23.097Z,1011.70
2023-05-21T00:16:55.556Z,1011.70
2023-05-21T00:17:28.128Z,1011.69
2023-05-21T00:18:00.580Z,1011.66
2023-05-21T00:18:33.004Z,1011.69
2023-05-21T00:19:05.473Z,1011.70
2023-05-21T00:19:37.856Z,1011.71
2023-05-21T00:20:10.296Z,1011.69
2023-05-21T00:20:42.732Z,1011.68
2023-05-21T00:21:15.184Z,1011.67
2023-05-21T00:21:47.629Z,1011.66
2023-05-21T00:22:20.062Z,1011.66
2023-05-21T00:22:52.544Z,1011.66
2023-05-21T00:23:25.049Z,1011.65
2023-05-21T00:23:57.483Z,1011.63
2023-05-21T00:24:29.902Z,1011.62
2023-05-21T00:25:02.325Z,1011.62
2023-05-21T00:25:35.050Z,1011.62
2023-05-21T00:26:07.360Z,1011.61
2023-05-21T00:26:39.773Z,1011.58
2023-05-21T00:27:12.235Z,1011.58
2023-05-21T00:27:44.762Z,1011.58
2023-05-21T00:28:17.201Z,1011.56
2023-05-21T00:28:49.652Z,1011.55
2023-05-21T00:29:22.087Z,1011.56
2023-05-21T00:29:54.515Z,1011.57
2023-05-21T00:30:26.953Z,1011.55
2023-05-21T00:30:59.434Z,1011.54
2023-05-21T00:31:31.978Z,1011.54
2023-05-21T00:32:04.457Z,1011.54
2023-05-21T00:32:36.963Z,1011.54
2023-05-21T00:33:09.354Z,1011.52
2023-05-21T00:33:41.803Z,1011.52
2023-05-21T00:34:14.236Z,1011.51
2023-05-21T00:34:46.687Z,1011.51
2023-05-21T00:35:19.137Z,1011.50
2023-05-21T00:35:51.605Z,1011.50
2023-05-21T00:36:24.038Z,1011.50
2023-05-21T00:36:56.432Z,1011.51
2023-05-21T00:37:28.880Z,1011.48
2023-05-21T00:38:01.307Z,1011.49
2023-05-21T00:38:33.736Z,1011.50
2023-05-21T00:39:06.201Z,1011.48
2023-05-21T00:39:38.670Z,1011.49
2023-05-21T00:40:11.120Z,1011.48
2023-05-21T00:40:43.570Z,1011.48
2023-05-21T00:41:16.009Z,1011.50
2023-05-21T00:41:48.428Z,1011.49
2023-05-21T00:42:20.847Z,1011.48
2023-05-21T00:42:53.306Z,1011.49
2023-05-21T00:43:25.755Z,1011.48
2023-05-21T00:43:58.179Z,1011.45
2023-05-21T00:44:30.608Z,1011.48
2023-05-21T00:45:03.068Z,1011.48
2023-05-21T00:45:35.666Z,1011.47
2023-05-21T00:46:08.066Z,1011.47
2023-05-21T00:46:40.469Z,1011.47
2023-05-21T00:47:12.923Z,1011.45
2023-05-21T00:47:45.448Z,1011.44
2023-05-21T00:48:17.837Z,1011.44
2023-05-21T00:48:50.276Z,1011.45
2023-05-21T00:49:22.717Z,1011.45
2023-05-21T00:49:55.152Z,1011.44
2023-05-21T00:50:27.616Z,1011.42
2023-05-21T00:51:00.119Z,1011.41
2023-05-21T00:51:32.556Z,1011.40
2023-05-21T00:52:05.030Z,1011.39
2023-05-21T00:52:37.500Z,1011.39
2023-05-21T00:53:09.988Z,1011.37
2023-05-21T00:53:42.637Z,1011.36
2023-05-21T00:54:15.120Z,1011.35
2023-05-21T00:54:47.607Z,1011.34
2023-05-21T00:55:20.232Z,1011.35
2023-05-21T00:55:52.702Z,1011.34
2023-05-21T00:56:25.159Z,1011.33
2023-05-21T00:56:57.600Z,1011.34
2023-05-21T00:57:30.035Z,1011.32
2023-05-21T00:58:02.512Z,1011.33
2023-05-21T00:58:34.984Z,1011.32
2023-05-21T00:59:07.413Z,1011.30
2023-05-21T00:59:39.880Z,1011.29
2023-05-21T01:00:12.320Z,1011.28
2023-05-21T01:00:44.748Z,1011.28
2023-05-21T01:01:17.196Z,1011.26
2023-05-21T01:01:49.668Z,1011.25
2023-05-21T01:02:22.145Z,1011.25
2023-05-21T01:02:54.642Z,1011.23
2023-05-21T01:03:27.153Z,1011.23
2023-05-21T01:03:59.562Z,1011.22
2023-05-21T01:04:31.995Z,1011.23
2023-05-21T01:05:04.425Z,1011.23
2023-05-21T01:05:37.101Z,1011.23
2023-05-21T01:06:09.325Z,1011.23
2023-05-21T01:06:41.858Z,1011.25
2023-05-21T01:07:14.299Z,1011.23
2023-05-21T01:07:46.735Z,1011.22
2023-05-21T01:08:19.261Z,1011.21
2023-05-21T01:08:51.708Z,1011.20
2023-05-21T01:09:24.155Z,1011.21
2023-05-21T01:09:56.577Z,1011.20
2023-05-21T01:10:29.032Z,1011.20
2023-05-21T01:11:01.498Z,1011.20
2023-05-21T01:11:33.957Z,1011.20
2023-05-21T01:12:06.430Z,1011.19
2023-05-21T01:12:38.852Z,1011.20
2023-05-21T01:13:11.289Z,1011.18
2023-05-21T01:13:43.706Z,1011.17
2023-05-21T01:14:16.139Z,1011.16
2023-05-21T01:14:48.573Z,1011.13
2023-05-21T01:15:21.048Z,1011.12
2023-05-21T01:15:53.544Z,1011.13
2023-05-21T01:16:26.035Z,1011.12
2023-05-21T01:16:58.511Z,1011.10
2023-05-21T01:17:30.929Z,1011.10
2023-05-21T01:18:03.442Z,1011.10
2023-05-21T01:18:35.863Z,1011.10
2023-05-21T01:19:08.375Z,1011.10
2023-05-21T01:19:40.741Z,1011.09
2023-05-21T01:20:13.142Z,1011.10
2023-05-21T01:20:45.586Z,1011.09
2023-05-21T01:21:18.080Z,1011.07
2023-05-21T01:21:50.592Z,1011.08
2023-05-21T01:22:23.102Z,1011.05
2023-05-21T01:22:55.564Z,1011.06
2023-05-21T01:23:27.998Z,1011.03
2023-05-21T01:24:00.485Z,1011.05
2023-05-21T01:24:32.922Z,1011.04
2023-05-21T01:25:05.376Z,1011.04
2023-05-21T01:25:38.085Z,1011.03
2023-05-21T01:26:10.419Z,1011.03
2023-05-21T01:26:42.865Z,1011.04
2023-05-21T01:27:15.302Z,1011.04
2023-05-21T01:27:47.779Z,1011.01
2023-05-21T01:28:20.239Z,1011.02
2023-05-21T01:28:52.682Z,1011.01
2023-05-21T01:29:25.163Z,1011.02
2023-05-21T01:29:57.597Z,1011.01
2023-05-21T01:30:30.137Z,1011.01
2023-05-21T01:31:02.544Z,1010.99
2023-05-21T01:31:34.986Z,1010.99
2023-05-21T01:32:07.477Z,1011.00
2023-05-21T01:32:39.952Z,1010.98
2023-05-21T01:33:12.397Z,1010.97
2023-05-21T01:33:44.889Z,1010.98
2023-05-21T01:34:17.313Z,1010.99
2023-05-21T01:34:49.771Z,1010.99
2023-05-21T01:35:22.200Z,1010.97
2023-05-21T01:35:54.657Z,1010.97
2023-05-21T01:36:27.140Z,1010.97
2023-05-21T01:36:59.563Z,1010.97
2023-05-21T01:37:32.044Z,1010.98
2023-05-21T01:38:04.511Z,1010.96
2023-05-21T01:38:36.950Z,1010.97
2023-05-21T01:39:09.409Z,1010.98
2023-05-21T01:39:41.829Z,1010.98
2023-05-21T01:40:14.287Z,1010.96
2023-05-21T01:40:46.789Z,1010.96
2023-05-21T01:41:19.289Z,1010.96
2023-05-21T01:41:51.744Z,1010.95
2023-05-21T01:42:24.221Z,1010.93
2023-05-21T01:42:56.652Z,1010.95
2023-05-21T01:43:29.159Z,1010.93
2023-05-21T01:44:01.613Z,1010.93
2023-05-21T01:44:34.718Z,1010.96
2023-05-21T01:45:07.212Z,1010.97
2023-05-21T01:45:39.823Z,1010.95
2023-05-21T01:46:12.327Z,1010.96
2023-05-21T01:46:44.822Z,1010.97
2023-05-21T01:47:17.189Z,1010.95
2023-05-21T01:47:49.732Z,1010.93
2023-05-21T01:48:22.100Z,1010.94
2023-05-21T01:48:54.549Z,1010.95
2023-05-21T01:49:26.993Z,1010.95
2023-05-21T01:49:59.479Z,1010.95
2023-05-21T01:50:31.992Z,1010.94
2023-05-21T01:51:04.462Z,1010.94
2023-05-21T01:51:36.907Z,1010.92
2023-05-21T01:52:09.328Z,1010.95
2023-05-21T01:52:41.771Z,1010.96
2023-05-21T01:53:14.198Z,1010.95
2023-05-21T01:53:46.720Z,1010.97
2023-05-21T01:54:19.243Z,1010.96
2023-05-21T01:54:51.699Z,1010.97
2023-05-21T01:55:24.212Z,1010.97
2023-05-21T01:55:56.652Z,1011.00
2023-05-21T01:56:29.087Z,1010.99
2023-05-21T01:57:01.546Z,1011.01
2023-05-21T01:57:34.018Z,1011.00
2023-05-21T01:58:06.448Z,1011.01
2023-05-21T01:58:38.956Z,1010.99
2023-05-21T01:59:11.434Z,1010.99
2023-05-21T01:59:43.894Z,1010.98
2023-05-21T02:00:16.323Z,1010.97
2023-05-21T02:00:48.772Z,1010.96
2023-05-21T02:01:21.288Z,1010.98
2023-05-21T02:01:53.799Z,1010.97
2023-05-21T02:02:26.354Z,1010.96
2023-05-21T02:02:58.820Z,1010.95
2023-05-21T02:03:31.483Z,1010.96
2023-05-21T02:04:03.661Z,1010.97
2023-05-21T02:04:36.080Z,1010.97
2023-05-21T02:05:08.505Z,1010.96
2023-05-21T02:05:40.933Z,1010.95
2023-05-21T02:06:13.351Z,1010.94
2023-05-21T02:06:45.807Z,1010.93
2023-05-21T02:07:18.233Z,1010.92
2023-05-21T02:07:50.689Z,1010.93
2023-05-21T02:08:23.152Z,1010.91
2023-05-21T02:08:55.703Z,1010.90
2023-05-21T02:09:28.059Z,1010.89
2023-05-21T02:10:00.500Z,1010.87
2023-05-21T02:10:32.976Z,1010.87
2023-05-21T02:11:05.429Z,1010.86
2023-05-21T02:11:37.915Z,1010.86
2023-05-21T02:12:10.395Z,1010.85
2023-05-21T02:12:42.853Z,1010.86
2023-05-21T02:13:15.292Z,1010.85
2023-05-21T02:13:47.731Z,1010.85
2023-05-21T02:14:20.149Z,1010.84
2023-05-21T02:14:52.582Z,1010.86
2023-05-21T02:15:25.058Z,1010.86
2023-05-21T02:15:57.560Z,1010.84
2023-05-21T02:16:30.066Z,1010.85
2023-05-21T02:17:02.409Z,1010.85
2023-05-21T02:17:34.896Z,1010.86
2023-05-21T02:18:07.386Z,1010.86
2023-05-21T02:18:39.821Z,1010.86
2023-05-21T02:19:12.393Z,1010.86
2023-05-21T02:19:44.755Z,1010.88
2023-05-21T02:20:17.201Z,1010.86
2023-05-21T02:20:49.652Z,1010.88
2023-05-21T02:21:22.094Z,1010.86
2023-05-21T02:21:54.557Z,1010.87
2023-05-21T02:22:27.030Z,1010.85
2023-05-21T02:22:59.494Z,1010.85
2023-05-21T02:23:31.983Z,1010.85
2023-05-21T02:24:04.400Z,1010.84
2023-05-21T02:24:36.866Z,1010.85
2023-05-21T02:25:09.325Z,1010.85
2023-05-21T02:25:41.818Z,1010.84
2023-05-21T02:26:14.244Z,1010.84
2023-05-21T02:26:46.687Z,1010.85
2023-05-21T02:27:19.187Z,1010.85
2023-05-21T02:27:51.686Z,1010.85
2023-05-21T02:28:24.100Z,1010.85
2023-05-21T02:28:56.580Z,1010.85
2023-05-21T02:29:29.020Z,1010.83
2023-05-21T02:30:01.464Z,1010.86
2023-05-21T02:30:33.957Z,1010.85
2023-05-21T02:31:06.407Z,1010.87
2023-05-21T02:31:38.906Z,1010.84
2023-05-21T02:32:11.362Z,1010.83
2023-05-21T02:32:43.862Z,1010.84
2023-05-21T02:33:16.258Z,1010.83
2023-05-21T02:33:48.725Z,1010.83
2023-05-21T02:34:21.167Z,1010.80
2023-05-21T02:34:53.605Z,1010.80
2023-05-21T02:35:26.075Z,1010.78
2023-05-21T02:35:58.499Z,1010.78
2023-05-21T02:36:30.937Z,1010.79
2023-05-21T02:37:03.377Z,1010.79
2023-05-21T02:37:35.842Z,1010.77
2023-05-21T02:38:08.310Z,1010.80
2023-05-21T02:38:40.785Z,1010.77
2023-05-21T02:39:13.240Z,1010.79
2023-05-21T02:39:45.705Z,1010.78
2023-05-21T02:40:18.137Z,1010.77
2023-05-21T02:40:50.615Z,1010.77
2023-05-21T02:41:23.059Z,1010.79
2023-05-21T02:41:55.525Z,1010.78
2023-05-21T02:42:27.971Z,1010.79
2023-05-21T02:43:00.515Z,1010.78
2023-05-21T02:43:32.961Z,1010.77
2023-05-21T02:44:05.407Z,1010.77
2023-05-21T02:44:37.829Z,1010.78
2023-05-21T02:45:10.333Z,1010.77
2023-05-21T02:45:42.759Z,1010.77
2023-05-21T02:46:15.321Z,1010.76
2023-05-21T02:46:47.656Z,1010.76
2023-05-21T02:47:20.125Z,1010.77
2023-05-21T02:47:52.617Z,1010.77
2023-05-21T02:48:25.066Z,1010.74
2023-05-21T02:48:57.525Z,1010.73
2023-05-21T02:49:30.035Z,1010.74
2023-05-21T02:50:02.444Z,1010.72
2023-05-21T02:50:34.909Z,1010.70
2023-05-21T02:51:07.357Z,1010.71
2023-05-21T02:51:39.816Z,1010.70
2023-05-21T02:52:12.301Z,1010.71
2023-05-21T02:52:44.723Z,1010.69
2023-05-21T02:53:17.189Z,1010.68
2023-05-21T02:53:49.635Z,1010.68
2023-05-21T02:54:22.128Z,1010.67
2023-05-21T02:54:54.611Z,1010.67
2023-05-21T02:55:27.066Z,1010.67
2023-05-21T02:55:59.519Z,1010.66
2023-05-21T02:56:31.951Z,1010.64
2023-05-21T02:57:04.414Z,1010.62
2023-05-21T02:57:36.895Z,1010.60
2023-05-21T02:58:09.349Z,1010.62
2023-05-21T02:58:41.844Z,1010.61
2023-05-21T02:59:14.273Z,1010.60
2023-05-21T02:59:46.709Z,1010.60
2023-05-21T03:00:19.165Z,1010.60
2023-05-21T03:00:51.649Z,1010.62
2023-05-21T03:01:24.118Z,1010.63
2023-05-21T03:01:56.567Z,1010.63
2023-05-21T03:02:29.118Z,1010.61
2023-05-21T03:03:01.566Z,1010.61
2023-05-21T03:03:34.130Z,1010.60
2023-05-21T03:04:06.389Z,1010.60
2023-05-21T03:04:38.889Z,1010.62
2023-05-21T03:05:11.395Z,1010.60
2023-05-21T03:05:43.792Z,1010.61
2023-05-21T03:06:16.209Z,1010.62
2023-05-21T03:06:48.666Z,1010.57
2023-05-21T03:07:21.125Z,1010.60
2023-05-21T03:07:53.591Z,1010.61
2023-05-21T03:08:26.146Z,1010.59
2023-05-21T03:08:58.573Z,1010.57
2023-05-21T03:09:31.063Z,1010.59
2023-05-21T03:10:03.630Z,1010.58
2023-05-21T03:10:36.073Z,1010.62
2023-05-21T03:11:08.558Z,1010.61
2023-05-21T03:11:41.082Z,1010.63
2023-05-21T03:12:13.575Z,1010.62
2023-05-21T03:12:46.011Z,1010.64
2023-05-21T03:13:18.490Z,1010.65
2023-05-21T03:13:50.976Z,1010.64
2023-05-21T03:14:23.372Z,1010.62
2023-05-21T03:14:55.833Z,1010.63
2023-05-21T03:15:28.331Z,1010.64
2023-05-21T03:16:00.846Z,1010.64
2023-05-21T03:16:33.335Z,1010.62
2023-05-21T03:17:05.932Z,1010.62
2023-05-21T03:17:38.357Z,1010.59
2023-05-21T03:18:10.796Z,1010.61
2023-05-21T03:18:43.196Z,1010.60
2023-05-21T03:19:15.664Z,1010.60
2023-05-21T03:19:48.060Z,1010.59
2023-05-21T03:20:20.499Z,1010.58
2023-05-21T03:20:52.947Z,1010.56
2023-05-21T03:21:25.367Z,1010.57
2023-05-21T03:21:57.806Z,1010.58
2023-05-21T03:22:30.271Z,1010.59
2023-05-21T03:23:02.702Z,1010.60
2023-05-21T03:23:35.116Z,1010.61
2023-05-21T03:24:07.614Z,1010.61
2023-05-21T03:24:40.057Z,1010.60
2023-05-21T03:25:12.503Z,1010.62
2023-05-21T03:25:44.962Z,1010.61
2023-05-21T03:26:17.395Z,1010.60
2023-05-21T03:26:49.844Z,1010.60
2023-05-21T03:27:22.296Z,1010.60
2023-05-21T03:27:54.726Z,1010.60
2023-05-21T03:28:27.166Z,1010.60
2023-05-21T03:28:59.619Z,1010.58
2023-05-21T03:29:32.090Z,1010.58
2023-05-21T03:30:06.587Z,1010.59
2023-05-21T03:30:36.991Z,1010.58
2023-05-21T03:31:09.446Z,1010.56
2023-05-21T03:31:41.976Z,1010.56
2023-05-21T03:32:14.474Z,1010.55
2023-05-21T03:32:46.789Z,1010.55
2023-05-21T03:33:19.203Z,1010.55
2023-05-21T03:33:51.680Z,1010.55
2023-05-21T03:34:24.148Z,1010.55
2023-05-21T03:34:56.592Z,1010.55
2023-05-21T03:35:29.054Z,1010.56
2023-05-21T03:36:01.488Z,1010.55
2023-05-21T03:36:33.940Z,1010.55
2023-05-21T03:37:06.396Z,1010.56
2023-05-21T03:37:38.813Z,1010.56
2023-05-21T03:38:11.273Z,1010.57
2023-05-21T03:38:43.708Z,1010.58
2023-05-21T03:39:16.154Z,1010.58
2023-05-21T03:39:48.642Z,1010.62
2023-05-21T03:40:21.102Z,1010.62
2023-05-21T03:40:53.613Z,1010.61
2023-05-21T03:41:26.046Z,1010.62
2023-05-21T03:41:58.466Z,1010.63
2023-05-21T03:42:30.940Z,1010.61
2023-05-21T03:43:03.374Z,1010.62
2023-05-21T03:43:35.855Z,1010.60
2023-05-21T03:44:08.281Z,1010.60
2023-05-21T03:44:40.710Z,1010.60
2023-05-21T03:45:13.124Z,1010.59
2023-05-21T03:45:45.631Z,1010.58
2023-05-21T03:46:18.221Z,1010.58
2023-05-21T03:46:50.533Z,1010.59
2023-05-21T03:47:22.993Z,1010.60
2023-05-21T03:47:55.455Z,1010.61
2023-05-21T03:48:27.895Z,1010.61
2023-05-21T03:49:00.375Z,1010.61
2023-05-21T03:49:32.803Z,1010.59
2023-05-21T03:50:05.296Z,1010.60
2023-05-21T03:50:37.752Z,1010.60
2023-05-21T03:51:10.196Z,1010.59
2023-05-21T03:51:42.637Z,1010.60
2023-05-21T03:52:15.100Z,1010.59
2023-05-21T03:52:47.536Z,1010.59
2023-05-21T03:53:20.020Z,1010.58
2023-05-21T03:53:52.513Z,1010.58
2023-05-21T03:54:24.999Z,1010.56
2023-05-21T03:54:57.413Z,1010.57
2023-05-21T03:55:29.852Z,1010.57
2023-05-21T03:56:02.274Z,1010.58
2023-05-21T03:56:34.720Z,1010.57
2023-05-21T03:57:07.251Z,1010.58
2023-05-21T03:57:39.682Z,1010.58
2023-05-21T03:58:12.214Z,1010.61
2023-05-21T03:58:44.665Z,1010.62
2023-05-21T03:59:17.098Z,1010.60
2023-05-21T03:59:49.571Z,1010.61
2023-05-21T04:00:21.983Z,1010.61
2023-05-21T04:00:54.407Z,1010.62
2023-05-21T04:01:26.852Z,1010.61
2023-05-21T04:01:59.293Z,1010.61
2023-05-21T04:02:31.771Z,1010.62
2023-05-21T04:03:04.193Z,1010.61
2023-05-21T04:03:37.992Z,1010.62
2023-05-21T04:04:09.086Z,1010.60
2023-05-21T04:04:41.574Z,1010.61
2023-05-21T04:05:13.975Z,1010.61
2023-05-21T04:05:46.415Z,1010.62
2023-05-21T04:06:18.891Z,1010.61
2023-05-21T04:06:51.327Z,1010.60
2023-05-21T04:07:23.768Z,1010.61
2023-05-21T04:07:56.179Z,1010.59
2023-05-21T04:08:28.618Z,1010.61
2023-05-21T04:09:01.074Z,1010.58
2023-05-21T04:09:35.356Z,1010.61
2023-05-21T04:10:06.067Z,1010.60
2023-05-21T04:10:38.501Z,1010.60
2023-05-21T04:11:10.955Z,1010.60
2023-05-21T04:11:43.405Z,1010.62
2023-05-21T04:12:15.862Z,1010.62
2023-05-21T04:12:48.314Z,1010.63
2023-05-21T04:13:20.782Z,1010.63
2023-05-21T04:13:53.234Z,1010.64
2023-05-21T04:14:25.697Z,1010.65
2023-05-21T04:14:58.122Z,1010.66
2023-05-21T04:15:30.557Z,1010.65
2023-05-21T04:16:03.021Z,1010.65
2023-05-21T04:16:35.566Z,1010.63
2023-05-21T04:17:07.882Z,1010.64
2023-05-21T04:17:40.360Z,1010.62
2023-05-21T04:18:12.769Z,1010.64
2023-05-21T04:18:45.653Z,1010.65
2023-05-21T04:19:17.697Z,1010.67
2023-05-21T04:19:50.122Z,1010.67
2023-05-21T04:20:22.550Z,1010.69
2023-05-21T04:20:55.050Z,1010.70
2023-05-21T04:21:27.503Z,1010.71
2023-05-21T04:21:59.938Z,1010.73
2023-05-21T04:22:32.427Z,1010.75
2023-05-21T04:23:04.865Z,1010.75
2023-05-21T04:23:37.397Z,1010.75
2023-05-21T04:24:09.882Z,1010.74
2023-05-21T04:24:42.381Z,1010.76
2023-05-21T04:25:14.851Z,1010.77
2023-05-21T04:25:47.283Z,1010.76
2023-05-21T04:26:19.769Z,1010.79
2023-05-21T04:26:52.200Z,1010.79
2023-05-21T04:27:24.713Z,1010.82
2023-05-21T04:27:57.130Z,1010.82
2023-05-21T04:28:29.618Z,1010.83
2023-05-21T04:29:02.077Z,1010.82
2023-05-21T04:29:34.523Z,1010.80
2023-05-21T04:30:07.002Z,1010.81
2023-05-21T04:30:39.433Z,1010.80
2023-05-21T04:31:11.891Z,1010.82
2023-05-21T04:31:44.443Z,1010.81
2023-05-21T04:32:16.815Z,1010.81
2023-05-21T04:32:49.286Z,1010.78
2023-05-21T04:33:21.691Z,1010.78
2023-05-21T04:33:54.099Z,1010.79
2023-05-21T04:34:26.560Z,1010.80
2023-05-21T04:34:59.009Z,1010.79
2023-05-21T04:35:31.496Z,1010.80
2023-05-21T04:36:03.956Z,1010.80
2023-05-21T04:36:36.549Z,1010.80
2023-05-21T04:37:09.010Z,1010.80
2023-05-21T04:37:41.444Z,1010.80
2023-05-21T04:38:13.875Z,1010.80
2023-05-21T04:38:46.368Z,1010.80
2023-05-21T04:39:18.867Z,1010.80
2023-05-21T04:39:51.317Z,1010.80
2023-05-21T04:40:23.736Z,1010.81
2023-05-21T04:40:56.197Z,1010.81
2023-05-21T04:41:28.684Z,1010.80
2023-05-21T04:42:01.118Z,1010.82
2023-05-21T04:42:33.576Z,1010.82
2023-05-21T04:43:06.106Z,1010.81
2023-05-21T04:43:38.585Z,1010.82
2023-05-21T04:44:11.040Z,1010.82
2023-05-21T04:44:50.606Z,1010.82
2023-05-21T04:45:23.040Z,1010.81
2023-05-21T04:45:55.551Z,1010.80
2023-05-21T04:46:28.064Z,1010.80
2023-05-21T04:47:00.539Z,1010.78
2023-05-21T04:47:32.930Z,1010.79
2023-05-21T04:48:05.354Z,1010.80
2023-05-21T04:48:37.793Z,1010.82
2023-05-21T04:49:10.269Z,1010.80
2023-05-21T04:49:42.661Z,1010.81
2023-05-21T04:50:15.082Z,1010.81
2023-05-21T04:50:47.560Z,1010.81
2023-05-21T04:51:19.989Z,1010.79
2023-05-21T04:51:52.427Z,1010.79
2023-05-21T04:52:24.866Z,1010.79
2023-05-21T04:52:57.376Z,1010.77
2023-05-21T04:53:29.873Z,1010.77
2023-05-21T04:54:02.307Z,1010.76
2023-05-21T04:54:34.771Z,1010.77
2023-05-21T04:55:07.238Z,1010.73
2023-05-21T04:55:39.715Z,1010.76
2023-05-21T04:56:12.245Z,1010.74
2023-05-21T04:56:44.718Z,1010.74
2023-05-21T04:57:17.253Z,1010.74
2023-05-21T04:57:49.698Z,1010.74
2023-05-21T04:58:22.178Z,1010.73
2023-05-21T04:58:54.692Z,1010.74
2023-05-21T04:59:27.181Z,1010.74
2023-05-21T04:59:59.661Z,1010.74
2023-05-21T05:00:32.134Z,1010.72
2023-05-21T05:01:04.597Z,1010.72
2023-05-21T05:01:37.058Z,1010.73
2023-05-21T05:02:09.678Z,1010.74
2023-05-21T05:02:42.231Z,1010.70
2023-05-21T05:03:14.792Z,1010.68
2023-05-21T05:03:47.168Z,1010.64
2023-05-21T05:04:19.608Z,1010.64
2023-05-21T05:04:52.298Z,1010.65
2023-05-21T05:05:24.648Z,1010.63
2023-05-21T05:05:57.092Z,1010.63
2023-05-21T05:06:29.544Z,1010.62
2023-05-21T05:07:01.969Z,1010.60
2023-05-21T05:07:34.456Z,1010.60
2023-05-21T05:08:06.908Z,1010.59
2023-05-21T05:08:39.360Z,1010.61
2023-05-21T05:09:11.768Z,1010.59
2023-05-21T05:09:44.224Z,1010.58
2023-05-21T05:10:16.645Z,1010.59
2023-05-21T05:10:49.116Z,1010.59
2023-05-21T05:11:21.542Z,1010.60
2023-05-21T05:11:54.028Z,1010.61
2023-05-21T05:12:26.443Z,1010.62
2023-05-21T05:12:58.889Z,1010.63
2023-05-21T05:13:31.346Z,1010.65
2023-05-21T05:14:03.817Z,1010.69
2023-05-21T05:14:36.252Z,1010.70
2023-05-21T05:15:08.685Z,1010.71
2023-05-21T05:15:41.104Z,1010.70
2023-05-21T05:16:13.535Z,1010.70
2023-05-21T05:16:46.031Z,1010.69
2023-05-21T05:17:18.472Z,1010.69
2023-05-21T05:17:50.972Z,1010.68
2023-05-21T05:18:23.389Z,1010.66
2023-05-21T05:18:55.957Z,1010.66
2023-05-21T05:19:28.461Z,1010.64
2023-05-21T05:20:00.880Z,1010.62
2023-05-21T05:20:33.306Z,1010.60
2023-05-21T05:21:05.767Z,1010.59
2023-05-21T05:21:38.230Z,1010.58
2023-05-21T05:22:11.825Z,1010.59
2023-05-21T05:22:43.154Z,1010.58
2023-05-21T05:23:15.594Z,1010.54
2023-05-21T05:23:48.044Z,1010.54
2023-05-21T05:24:20.491Z,1010.55
2023-05-21T05:24:52.930Z,1010.55
2023-05-21T05:25:25.450Z,1010.55
2023-05-21T05:25:57.884Z,1010.56
2023-05-21T05:26:30.353Z,1010.56
2023-05-21T05:27:02.792Z,1010.57
2023-05-21T05:27:36.985Z,1010.58
2023-05-21T05:28:07.794Z,1010.60
2023-05-21T05:28:40.247Z,1010.59
2023-05-21T05:29:12.723Z,1010.63
2023-05-21T05:29:45.141Z,1010.64
2023-05-21T05:30:17.600Z,1010.64
2023-05-21T05:30:50.097Z,1010.64
2023-05-21T05:31:22.700Z,1010.64
2023-05-21T05:31:54.975Z,1010.63
2023-05-21T05:32:27.491Z,1010.63
2023-05-21T05:32:59.977Z,1010.64
2023-05-21T05:33:32.361Z,1010.63
2023-05-21T05:34:04.800Z,1010.63
2023-05-21T05:34:37.281Z,1010.61
2023-05-21T05:35:09.836Z,1010.60
2023-05-21T05:35:42.325Z,1010.60
2023-05-21T05:36:14.776Z,1010.59
2023-05-21T05:36:47.238Z,1010.59
2023-05-21T05:37:19.728Z,1010.57
2023-05-21T05:37:52.193Z,1010.57
2023-05-21T05:38:24.668Z,1010.55
2023-05-21T05:38:57.210Z,1010.55
2023-05-21T05:39:29.690Z,1010.55
2023-05-21T05:40:02.151Z,1010.53
2023-05-21T05:40:34.615Z,1010.55
2023-05-21T05:41:07.117Z,1010.54
2023-05-21T05:41:39.613Z,1010.55
2023-05-21T05:42:12.046Z,1010.56
2023-05-21T05:42:44.506Z,1010.56
2023-05-21T05:43:16.940Z,1010.55
2023-05-21T05:43:49.402Z,1010.53
2023-05-21T05:44:21.873Z,1010.54
2023-05-21T05:44:54.325Z,1010.55
2023-05-21T05:45:26.898Z,1010.56
2023-05-21T05:45:59.332Z,1010.56
2023-05-21T05:46:31.830Z,1010.57
2023-05-21T05:47:04.264Z,1010.57
2023-05-21T05:47:36.786Z,1010.58
2023-05-21T05:48:09.228Z,1010.58
2023-05-21T05:48:41.654Z,1010.59
2023-05-21T05:49:14.117Z,1010.59
2023-05-21T05:49:46.581Z,1010.57
2023-05-21T05:50:19.048Z,1010.54
2023-05-21T05:50:51.529Z,1010.54
2023-05-21T05:51:24.050Z,1010.54
2023-05-21T05:51:56.526Z,1010.51
2023-05-21T05:52:29.021Z,1010.50
2023-05-21T05:53:01.537Z,1010.49
2023-05-21T05:53:34.037Z,1010.47
2023-05-21T05:54:06.532Z,1010.45
2023-05-21T05:54:38.974Z,1010.41
2023-05-21T05:55:11.457Z,1010.40
2023-05-21T05:55:43.923Z,1010.39
2023-05-21T05:56:16.372Z,1010.37
2023-05-21T05:56:48.872Z,1010.38
2023-05-21T05:57:21.337Z,1010.37
2023-05-21T05:57:53.775Z,1010.38
2023-05-21T05:58:26.257Z,1010.39
2023-05-21T05:58:58.728Z,1010.39
2023-05-21T05:59:31.275Z,1010.39
2023-05-21T06:00:03.694Z,1010.39
2023-05-21T06:00:36.146Z,1010.39
2023-05-21T06:01:08.603Z,1010.40
2023-05-21T06:01:41.113Z,1010.40
2023-05-21T06:02:13.724Z,1010.39
2023-05-21T06:02:46.145Z,1010.38
2023-05-21T06:03:18.607Z,1010.38
2023-05-21T06:03:51.065Z,1010.39
2023-05-21T06:04:23.457Z,1010.36
2023-05-21T06:04:55.927Z,1010.35
2023-05-21T06:05:28.397Z,1010.37
2023-05-21T06:06:00.900Z,1010.36
2023-05-21T06:06:33.307Z,1010.36
2023-05-21T06:07:05.755Z,1010.37
2023-05-21T06:07:38.195Z,1010.40
2023-05-21T06:08:10.673Z,1010.39
2023-05-21T06:08:43.112Z,1010.39
2023-05-21T06:09:15.561Z,1010.39
2023-05-21T06:09:47.996Z,1010.42
2023-05-21T06:10:20.446Z,1010.41
2023-05-21T06:10:52.965Z,1010.42
2023-05-21T06:11:25.469Z,1010.42
2023-05-21T06:11:57.922Z,1010.43
2023-05-21T06:12:30.391Z,1010.44
2023-05-21T06:13:02.870Z,1010.44
2023-05-21T06:13:35.379Z,1010.44
2023-05-21T06:14:07.868Z,1010.44
2023-05-21T06:14:40.388Z,1010.44
2023-05-21T06:15:12.829Z,1010.43
2023-05-21T06:15:45.369Z,1010.44
2023-05-21T06:16:17.882Z,1010.44
2023-05-21T06:16:50.235Z,1010.44
2023-05-21T06:17:22.740Z,1010.45
2023-05-21T06:17:55.205Z,1010.43
2023-05-21T06:18:27.642Z,1010.43
2023-05-21T06:19:00.161Z,1010.43
2023-05-21T06:19:32.601Z,1010.41
2023-05-21T06:20:05.011Z,1010.40
2023-05-21T06:20:37.495Z,1010.42
2023-05-21T06:21:09.953Z,1010.42
2023-05-21T06:21:42.428Z,1010.44
2023-05-21T06:22:14.877Z,1010.43
2023-05-21T06:22:47.365Z,1010.42
2023-05-21T06:23:19.791Z,1010.44
2023-05-21T06:23:52.234Z,1010.45
2023-05-21T06:24:24.678Z,1010.46
2023-05-21T06:24:57.154Z,1010.44
2023-05-21T06:25:29.597Z,1010.45
2023-05-21T06:26:02.027Z,1010.46
2023-05-21T06:26:34.444Z,1010.46
2023-05-21T06:27:06.932Z,1010.46
2023-05-21T06:27:39.383Z,1010.46
2023-05-21T06:28:11.835Z,1010.47
2023-05-21T06:28:44.295Z,1010.46
2023-05-21T06:29:16.790Z,1010.46
2023-05-21T06:29:49.290Z,1010.47
2023-05-21T06:30:21.757Z,1010.47
2023-05-21T06:30:54.213Z,1010.49
2023-05-21T06:31:26.704Z,1010.50
2023-05-21T06:31:59.201Z,1010.51
2023-05-21T06:32:31.683Z,1010.51